Flight Track Log - Related Links

Times and Time Zones

All times are in EDT time to prevent confusion due to time zone crossing. See the SWA3225 flight status page for this flight to view local times or setup timezone preferences in your user account.

Time Position Orientation Groundspeed Altitude Reporting Facility
EDT Latitude Longitude Course Direction KTS MPH feet Rate Location/Type
Fri 08:20:46 AM 29.6380 -95.2420 38° Northeast 191 220 1,700  Level FlightAware ADS-B
Fri 08:21:05 AM 29.6540 -95.2360 18° North 214 246 2,300 2,700 Climbing FlightAware ADS-B
Fri 08:22:06 AM 29.7200 -95.2530 347° North 253 291 5,300 3,358 Climbing FlightAware ADS-B
Fri 08:22:54 AM 29.7750 -95.2660 348° North 251 289 8,400 3,293 Climbing FlightAware ADS-B
Fri 08:23:28 AM 29.8170 -95.2730 352° North 280 322 9,800 1,918 Climbing FlightAware ADS-B
Fri 08:24:31 AM 29.9070 -95.2350 20° North 366 421 11,500 1,824 Climbing FlightAware ADS-B
Fri 08:25:10 AM 29.9710 -95.2060 21° North 391 450 12,900 2,047 Climbing FlightAware ADS-B
Fri 08:25:56 AM 30.0490 -95.1690 22° Northeast 418 481 14,400 2,154 Climbing FlightAware ADS-B
Fri 08:26:28 AM 30.1090 -95.1420 21° North 431 496 15,700 2,143 Climbing FlightAware ADS-B
Fri 08:27:20 AM 30.2090 -95.0960 22° Northeast 453 521 17,400 1,846 Climbing FlightAware ADS-B
Fri 08:28:12 AM 30.3120 -95.0490 21° North 475 547 18,900 1,842 Climbing FlightAware ADS-B
Fri 08:29:01 AM 30.4120 -94.9980 24° Northeast 494 568 20,500 2,041 Climbing FlightAware ADS-B
Fri 08:29:49 AM 30.5070 -94.9260 33° Northeast 504 580 22,200 1,807 Climbing FlightAware ADS-B
Fri 08:30:24 AM 30.5770 -94.8730 33° Northeast 515 593 23,000 1,421 Climbing FlightAware ADS-B
Fri 08:31:05 AM 30.6580 -94.8110 33° Northeast 526 605 24,000 1,521 Climbing FlightAware ADS-B
Fri 08:31:35 AM 30.7210 -94.7620 34° Northeast 531 611 24,800 1,688 Climbing FlightAware ADS-B
Fri 08:32:09 AM 30.7880 -94.7110 33° Northeast 532 612 25,800 1,750 Climbing FlightAware ADS-B
Fri 08:32:47 AM 30.8670 -94.6500 34° Northeast 534 615 26,900 1,575 Climbing FlightAware ADS-B
Fri 08:33:29 AM 30.9550 -94.5820 34° Northeast 540 621 27,900 1,404 Climbing FlightAware ADS-B
Fri 08:34:21 AM 31.0640 -94.4980 33° Northeast 546 628 29,100 830 Climbing FlightAware ADS-B
Fri 08:35:03 AM 31.1390 -94.4410 33° Northeast 546 628 29,200 67 Climbing FlightAware ADS-B
Fri 08:35:51 AM 31.2250 -94.3750 33° Northeast 546 628 29,200  Level FlightAware ADS-B
Fri 08:36:27 AM 31.2900 -94.3260 33° Northeast 546 628 29,200  Level FlightAware ADS-B
Fri 08:37:03 AM 31.3550 -94.2770 33° Northeast 546 628 29,200 4,000 Level FlightAware ADS-B
Fri 08:37:54 AM 31.4920 -94.1630 35° Northeast 505 581 35,000 4,296 Climbing FlightAware ADS-B
Fri 08:38:24 AM 31.5430 -94.1250 32° Northeast 505 581 35,000  Level FlightAware ADS-B
Fri 08:39:11 AM 31.6210 -94.0650 33° Northeast 505 581 35,000  Level FlightAware ADS-B
Fri 08:39:47 AM 31.6810 -94.0190 33° Northeast 505 581 35,000  Level FlightAware ADS-B
Fri 08:40:35 AM 31.7610 -93.9580 33° Northeast 505 581 35,000  Level FlightAware ADS-B
Fri 08:41:21 AM 31.8380 -93.9000 33° Northeast 505 581 35,000  Level FlightAware ADS-B
Fri 08:41:46 AM 31.8790 -93.8680 34° Northeast 505 581 35,000  Level FlightAware ADS-B
Fri 08:42:22 AM 31.9390 -93.8220 33° Northeast 505 581 35,000  Level FlightAware ADS-B
Fri 08:42:58 AM 31.9990 -93.7760 33° Northeast 505 581 35,000 908 Level FlightAware ADS-B
Fri 08:44:21 AM 32.2240 -93.5830 36° Northeast 492 566 36,800 818 Climbing FlightAware ADS-B
Fri 08:45:10 AM 32.3020 -93.5210 34° Northeast 492 566 36,800  Level FlightAware ADS-B
Fri 08:45:34 AM 32.3410 -93.4900 34° Northeast 492 566 36,800  Level FlightAware ADS-B
Fri 08:46:23 AM 32.4190 -93.4270 34° Northeast 492 566 36,800  Level FlightAware ADS-B
Fri 08:47:00 AM 32.4790 -93.3800 33° Northeast 492 566 36,800  Level FlightAware ADS-B
Fri 08:47:37 AM 32.5380 -93.3320 34° Northeast 492 566 36,800  Level FlightAware ADS-B
Fri 08:48:25 AM 32.6150 -93.2710 34° Northeast 492 566 36,800  Level FlightAware ADS-B
Fri 08:49:14 AM 32.6940 -93.2080 34° Northeast 492 566 36,800  Level FlightAware ADS-B
Fri 08:49:52 AM 32.7540 -93.1590 34° Northeast 492 566 36,800  Level FlightAware ADS-B
Fri 08:50:38 AM 32.8280 -93.1000 34° Northeast 492 566 36,800  Level FlightAware ADS-B
Fri 08:51:14 AM 32.8860 -93.0530 34° Northeast 492 566 36,800  Level FlightAware ADS-B
Fri 08:51:50 AM 32.9440 -93.0070 34° Northeast 492 566 36,800  Level FlightAware ADS-B
Fri 08:52:38 AM 33.0210 -92.9450 34° Northeast 492 566 36,800  Level FlightAware ADS-B
Fri 08:53:27 AM 33.0990 -92.8820 34° Northeast 492 566 36,800 118 Level FlightAware ADS-B
Fri 08:54:20 AM 33.2944 -92.6544 34° Northeast 480 552 37,000 73 Climbing Fort Worth Center
Fri 08:56:11 AM 33.3947 -92.3703 67° East 536 617 37,000  Level Memphis Center
Fri 08:57:11 AM 33.4428 -92.2319 67° East 517 595 37,000  Level Memphis Center
Fri 08:58:11 AM 33.4994 -92.0786 66° East 504 580 37,000  Level Memphis Center
Fri 08:59:11 AM 33.5536 -91.9250 67° East 498 573 37,000  Level Memphis Center
Fri 09:00:11 AM 33.6219 -91.7792 61° Northeast 498 573 37,000  Level Memphis Center
Fri 09:05:07 AM 34.0000 -91.0630 61° Northeast 504 580 37,000  Level FlightAware ADS-B
Fri 09:06:09 AM 34.0780 -90.9130 58° Northeast 507 583 37,000  Level FlightAware ADS-B
Fri 09:06:47 AM 34.1240 -90.8230 58° Northeast 509 586 37,000  Level FlightAware ADS-B
Fri 09:07:38 AM 34.1870 -90.7010 58° Northeast 511 588 37,000  Level FlightAware ADS-B
Fri 09:08:04 AM 34.2200 -90.6370 58° Northeast 512 589 37,000  Level FlightAware ADS-B
Fri 09:08:58 AM 34.2880 -90.5040 58° Northeast 513 590 37,000  Level FlightAware ADS-B
Fri 09:09:37 AM 34.3370 -90.4090 58° Northeast 512 589 37,000  Level FlightAware ADS-B
Fri 09:10:36 AM 34.4090 -90.2660 59° Northeast 511 588 37,000  Level FlightAware ADS-B
Fri 09:11:06 AM 34.4470 -90.1930 58° Northeast 512 589 37,000  Level FlightAware ADS-B
Fri 09:11:53 AM 34.5030 -90.0810 59° Northeast 511 588 37,000  Level FlightAware ADS-B
Fri 09:12:40 AM 34.5630 -89.9630 58° Northeast 511 588 37,000  Level FlightAware ADS-B
Fri 09:13:52 AM 34.6500 -89.7890 59° Northeast 513 590 37,000  Level FlightAware ADS-B
Fri 09:14:24 AM 34.6900 -89.7080 59° Northeast 514 592 37,000  Level FlightAware ADS-B
Fri 09:15:03 AM 34.7380 -89.6130 58° Northeast 515 593 37,000  Level FlightAware ADS-B
Fri 09:15:20 AM 34.7600 -89.5680 59° Northeast 516 594 37,000  Level FlightAware ADS-B
Fri 09:16:11 AM 34.8150 -89.4610 58° Northeast 516 594 37,000  Level FlightAware ADS-B
Fri 09:16:59 AM 34.8670 -89.3600 58° Northeast 516 594 37,000  Level FlightAware ADS-B
Fri 09:17:35 AM 34.9050 -89.2850 58° Northeast 516 594 37,000  Level FlightAware ADS-B
Fri 09:18:23 AM 34.9570 -89.1840 58° Northeast 516 594 37,000  Level FlightAware ADS-B
Fri 09:19:01 AM 35.0330 -89.0160 61° Northeast 522 601 37,000  Level FlightAware ADS-B
Fri 09:19:42 AM 35.0830 -88.9130 59° Northeast 523 602 37,000  Level FlightAware ADS-B
Fri 09:20:16 AM 35.1260 -88.8250 59° Northeast 524 603 37,000  Level FlightAware ADS-B
Fri 09:20:58 AM 35.1770 -88.7200 59° Northeast 524 603 37,000  Level FlightAware ADS-B
Fri 09:21:35 AM 35.2230 -88.6260 59° Northeast 523 602 37,000  Level FlightAware ADS-B
Fri 09:22:05 AM 35.2590 -88.5500 60° Northeast 522 601 37,000  Level FlightAware ADS-B
Fri 09:23:06 AM 35.3340 -88.3960 59° Northeast 522 601 37,000  Level FlightAware ADS-B
Fri 09:23:57 AM 35.3880 -88.2860 59° Northeast 522 601 37,000  Level FlightAware ADS-B
Fri 09:24:35 AM 35.4280 -88.2040 59° Northeast 522 601 37,000  Level FlightAware ADS-B
Fri 09:25:11 AM 35.4660 -88.1260 59° Northeast 522 601 37,000  Level FlightAware ADS-B
Fri 09:25:47 AM 35.5040 -88.0480 59° Northeast 522 601 37,000  Level FlightAware ADS-B
Fri 09:26:16 AM 35.5670 -87.9070 61° Northeast 524 603 37,000  Level FlightAware ADS-B
Fri 09:26:38 AM 35.5930 -87.8540 59° Northeast 524 603 37,000  Level FlightAware ADS-B
Fri 09:27:45 AM 35.6690 -87.6960 59° Northeast 524 603 37,000  Level FlightAware ADS-B
Fri 09:28:32 AM 35.7320 -87.5590 60° Northeast 523 602 37,000  Level FlightAware ADS-B
Fri 09:29:28 AM 35.7990 -87.4140 60° Northeast 525 604 37,000  Level FlightAware ADS-B
Fri 09:30:02 AM 35.8420 -87.3240 59° Northeast 524 603 37,000  Level FlightAware ADS-B
Fri 09:30:48 AM 35.8970 -87.2060 60° Northeast 526 605 37,000  Level FlightAware ADS-B
Fri 09:31:28 AM 35.9440 -87.1020 61° Northeast 527 606 37,000  Level FlightAware ADS-B
Fri 09:32:16 AM 36.0020 -86.9760 60° Northeast 528 608 37,000  Level FlightAware ADS-B
Fri 09:32:52 AM 36.0470 -86.8800 60° Northeast 528 608 37,000  Level FlightAware ADS-B
Fri 09:33:36 AM 36.0990 -86.7670 60° Northeast 529 609 37,000  Level FlightAware ADS-B
Fri 09:34:44 AM 36.1700 -86.5820 65° Northeast 530 610 37,000  Level FlightAware ADS-B
Fri 09:35:28 AM 36.2110 -86.4560 68° East 531 611 37,000  Level FlightAware ADS-B
Fri 09:36:00 AM 36.2390 -86.3680 68° East 531 611 37,000  Level FlightAware ADS-B
Fri 09:36:36 AM 36.2720 -86.2660 68° East 531 611 37,000  Level FlightAware ADS-B
Fri 09:37:13 AM 36.3050 -86.1640 68° East 531 611 37,000  Level FlightAware ADS-B
Fri 09:37:48 AM 36.3380 -86.0610 68° East 531 611 37,000  Level FlightAware ADS-B
Fri 09:38:28 AM 36.3730 -85.9510 68° East 531 611 37,000  Level FlightAware ADS-B
Fri 09:39:15 AM 36.4130 -85.8250 68° East 531 611 37,000  Level FlightAware ADS-B
Fri 09:40:00 AM 36.4550 -85.6910 69° East 530 610 37,000  Level FlightAware ADS-B
Fri 09:40:35 AM 36.4850 -85.5950 69° East 530 610 37,000  Level FlightAware ADS-B
Fri 09:41:17 AM 36.5240 -85.4700 69° East 530 610 37,000  Level FlightAware ADS-B
Fri 09:41:53 AM 36.5560 -85.3700 68° East 531 611 37,000  Level FlightAware ADS-B
Fri 09:42:30 AM 36.5890 -85.2630 69° East 531 611 37,000  Level FlightAware ADS-B
Fri 09:43:25 AM 36.6370 -85.1080 69° East 533 613 37,000  Level FlightAware ADS-B
Fri 09:43:59 AM 36.6640 -85.0080 71° East 534 615 37,000  Level FlightAware ADS-B
Fri 09:44:34 AM 36.6830 -84.9030 77° East 536 617 37,000  Level FlightAware ADS-B
Fri 09:45:18 AM 36.7060 -84.7690 78° East 539 620 37,000  Level FlightAware ADS-B
Fri 09:45:54 AM 36.7260 -84.6590 77° East 541 623 37,000  Level FlightAware ADS-B
Fri 09:46:27 AM 36.7430 -84.5590 78° East 542 624 37,000  Level FlightAware ADS-B
Fri 09:47:04 AM 36.7630 -84.4470 77° East 544 626 37,000  Level FlightAware ADS-B
Fri 09:47:34 AM 36.7820 -84.3560 75° East 547 629 37,000  Level FlightAware ADS-B
Fri 09:48:20 AM 36.8250 -84.2210 68° East 548 631 37,000  Level FlightAware ADS-B
Fri 09:48:56 AM 36.8600 -84.1160 67° East 550 633 37,000  Level FlightAware ADS-B
Fri 09:49:27 AM 36.8890 -84.0250 68° East 550 633 37,000  Level FlightAware ADS-B
Fri 09:50:18 AM 36.9380 -83.8750 68° East 551 634 37,000  Level FlightAware ADS-B
Fri 09:51:02 AM 36.9800 -83.7440 68° East 550 633 37,000  Level FlightAware ADS-B
Fri 09:51:39 AM 37.0140 -83.6360 68° East 551 634 37,000  Level FlightAware ADS-B
Fri 09:52:23 AM 37.0550 -83.5070 68° East 552 635 37,000  Level FlightAware ADS-B
Fri 09:52:59 AM 37.0900 -83.3980 68° East 552 635 37,000  Level FlightAware ADS-B
Fri 09:53:32 AM 37.1200 -83.3010 69° East 550 633 37,000  Level FlightAware ADS-B
Fri 09:54:04 AM 37.1500 -83.2070 68° East 549 632 37,000  Level FlightAware ADS-B
Fri 09:54:49 AM 37.1910 -83.0750 69° East 549 632 37,000  Level FlightAware ADS-B
Fri 09:55:27 AM 37.2260 -82.9620 69° East 547 629 37,000  Level FlightAware ADS-B
Fri 09:56:05 AM 37.2610 -82.8490 69° East 547 629 37,000  Level FlightAware ADS-B
Fri 09:56:38 AM 37.2920 -82.7510 68° East 547 629 37,000  Level FlightAware ADS-B
Fri 09:57:52 AM 37.3590 -82.5320 69° East 549 632 37,000  Level FlightAware ADS-B
Fri 09:58:24 AM 37.3880 -82.4370 69° East 551 634 37,000  Level FlightAware ADS-B
Fri 09:59:17 AM 37.4360 -82.2820 69° East 552 635 37,000  Level FlightAware ADS-B
Fri 10:00:06 AM 37.4820 -82.1280 69° East 553 636 37,000  Level FlightAware ADS-B
Fri 10:00:48 AM 37.5170 -82.0110 69° East 555 639 37,000  Level FlightAware ADS-B
Fri 10:01:57 AM 37.5830 -81.7930 69° East 557 641 37,000  Level FlightAware ADS-B
Fri 10:02:36 AM 37.6180 -81.6750 69° East 558 642 37,000  Level FlightAware ADS-B
Fri 10:03:13 AM 37.6510 -81.5640 69° East 559 643 37,000  Level FlightAware ADS-B
Fri 10:04:07 AM 37.7000 -81.3980 69° East 560 644 37,000  Level FlightAware ADS-B
Fri 10:04:51 AM 37.7380 -81.2670 70° East 561 646 37,000  Level FlightAware ADS-B
Fri 10:05:41 AM 37.7790 -81.1150 71° East 556 640 37,000  Level FlightAware ADS-B
Fri 10:06:13 AM 37.7930 -81.0100 80° East 550 633 37,000  Level FlightAware ADS-B
Fri 10:06:58 AM 37.8100 -80.8650 82° East 548 631 37,000  Level FlightAware ADS-B
Fri 10:07:30 AM 37.8220 -80.7610 82° East 548 631 37,000  Level FlightAware ADS-B
Fri 10:08:12 AM 37.8370 -80.6330 82° East 551 634 37,000  Level FlightAware ADS-B
Fri 10:08:57 AM 37.8530 -80.4890 82° East 549 632 37,000  Level FlightAware ADS-B
Fri 10:09:38 AM 37.8780 -80.3580 76° East 560 644 37,000  Level FlightAware ADS-B
Fri 10:10:28 AM 37.9260 -80.2070 68° East 562 647 37,000  Level FlightAware ADS-B
Fri 10:11:03 AM 37.9590 -80.1040 68° East 562 647 37,000  Level FlightAware ADS-B
Fri 10:12:00 AM 38.0060 -79.9560 68° East 562 647 37,000  Level FlightAware ADS-B
Fri 10:12:20 AM 38.0340 -79.8660 68° East 561 646 37,000  Level FlightAware ADS-B
Fri 10:13:06 AM 38.0770 -79.7270 69° East 560 644 37,000  Level FlightAware ADS-B
Fri 10:13:47 AM 38.1160 -79.6020 68° East 559 643 37,000 -64 Level FlightAware ADS-B
Fri 10:14:40 AM 38.1600 -79.4620 68° East 558 642 36,900 -2,301 Descending FlightAware ADS-B
Fri 10:15:00 AM 38.1850 -79.3800 69° East 564 649 34,200 -4,356 Descending FlightAware ADS-B
Fri 10:15:53 AM 38.2350 -79.2160 69° East 571 657 31,600 -2,761 Descending FlightAware ADS-B
Fri 10:16:53 AM 38.2940 -79.0260 68° East 557 641 29,000 -2,495 Descending FlightAware ADS-B
Fri 10:17:34 AM 38.3310 -78.9040 69° East 546 628 27,400 -1,500 Descending FlightAware ADS-B
Fri 10:18:13 AM 38.3620 -78.8010 69° East 519 597 27,000 -304 Descending FlightAware ADS-B
Fri 10:18:53 AM 38.4010 -78.6750 68° East 514 592 27,000 -400 Level FlightAware ADS-B
Fri 10:19:43 AM 38.4440 -78.5320 69° East 513 590 26,400 -876 Descending FlightAware ADS-B
Fri 10:20:22 AM 38.4760 -78.4230 69° East 506 582 25,700 -1,184 Descending FlightAware ADS-B
Fri 10:20:59 AM 38.5070 -78.3200 69° East 497 572 24,900 -1,724 Descending FlightAware ADS-B
Fri 10:21:49 AM 38.5470 -78.1850 69° East 485 558 23,200 -1,407 Descending FlightAware ADS-B
Fri 10:22:20 AM 38.5700 -78.1070 69° East 465 535 23,000 -174 Descending FlightAware ADS-B
Fri 10:22:58 AM 38.5980 -78.0110 70° East 466 536 23,000 -1,301 Level FlightAware ADS-B
Fri 10:23:43 AM 38.6330 -77.8910 69° East 463 533 21,200 -2,074 Descending FlightAware ADS-B
Fri 10:24:19 AM 38.6450 -77.7950 81° East 445 512 20,200 -1,575 Descending FlightAware ADS-B
Fri 10:25:03 AM 38.6530 -77.6830 85° East 426 490 19,100 -1,084 Descending FlightAware ADS-B
Fri 10:25:42 AM 38.6580 -77.5860 86° East 416 479 18,700 -1,364 Descending FlightAware ADS-B
Fri 10:26:31 AM 38.6650 -77.4670 86° East 411 473 17,100 -1,596 Descending FlightAware ADS-B
Fri 10:27:16 AM 38.6720 -77.3570 85° East 396 456 16,200 -1,172 Descending FlightAware ADS-B
Fri 10:27:58 AM 38.6770 -77.2600 86° East 404 465 15,400 -1,481 Descending FlightAware ADS-B
Fri 10:28:37 AM 38.6830 -77.1660 85° East 400 460 14,200 -1,840 Descending FlightAware ADS-B
Fri 10:29:13 AM 38.6870 -77.0870 86° East 399 459 13,100 -1,895 Descending FlightAware ADS-B
Fri 10:29:53 AM 38.6930 -76.9890 85° East 394 453 11,800 -1,800 Descending FlightAware ADS-B
Fri 10:30:33 AM 38.6970 -76.8990 87° East 374 430 10,700 -1,263 Descending FlightAware ADS-B
Fri 10:31:09 AM 38.7020 -76.8210 85° East 340 391 10,200 -1,099 Descending FlightAware ADS-B
Fri 10:31:44 AM 38.7070 -76.7520 85° East 333 383 9,400 -1,151 Descending FlightAware ADS-B
Fri 10:32:22 AM 38.7310 -76.6880 64° Northeast 321 369 8,800 -769 Descending FlightAware ADS-B
Fri 10:33:02 AM 38.7590 -76.6220 61° Northeast 294 338 8,400 -904 Descending FlightAware ADS-B
Fri 10:33:35 AM 38.7800 -76.5750 60° Northeast 285 328 7,700 -1,370 Descending FlightAware ADS-B
Fri 10:34:34 AM 38.8330 -76.5050 46° Northeast 282 325 6,300 -1,200 Descending FlightAware ADS-B
Fri 10:35:05 AM 38.8420 -76.4560 77° East 269 310 5,900 -930 Descending FlightAware ADS-B
Fri 10:35:45 AM 38.8600 -76.4010 67° East 265 305 5,200 -494 Descending FlightAware ADS-B
Fri 10:36:30 AM 38.9120 -76.3840 14° North 251 289 5,200 71 Level FlightAware ADS-B
Fri 10:37:10 AM 38.9590 -76.3810 North 254 292 5,300 71 Climbing FlightAware ADS-B
Fri 10:37:54 AM 38.9940 -76.4140 324° Northwest 202 232 5,300 -222 Level FlightAware ADS-B
Fri 10:38:31 AM 38.9970 -76.4540 276° West 174 200 5,000 -701 Descending FlightAware ADS-B
Fri 10:39:11 AM 39.0020 -76.4940 279° West 168 193 4,400 -876 Descending FlightAware ADS-B
Fri 10:40:00 AM 39.0240 -76.5320 307° West 163 188 3,700 -867 Descending FlightAware ADS-B
Fri 10:40:34 AM 39.0440 -76.5520 322° Northwest 164 189 3,200 -818 Descending FlightAware ADS-B
Fri 10:41:28 AM 39.0780 -76.5830 325° Northwest 163 188 2,500 -809 Descending FlightAware ADS-B
Fri 10:42:03 AM 39.0970 -76.6000 325° Northwest 140 161 2,000 -723 Descending FlightAware ADS-B
Fri 10:42:51 AM 39.1200 -76.6210 325° Northwest 136 157 1,500 -702 Descending FlightAware ADS-B
Fri 10:43:37 AM 39.1460 -76.6460 323° Northwest 154 177 900 -578 Descending FlightAware ADS-B
Fri 10:44:14 AM 39.1650 -76.6630 325° Northwest 156 180 700 -324 Descending FlightAware ADS-B
Fri 10:51:00 AM 39.1667 -76.6667 339° North  Level FlightAware Approximate
Fri 10:52:00 AM 39.1754 -76.6683 339° North  Level Estimated
Fri 10:53:00 AM 39.1754 -76.6683 339° North  Level Estimated

Login

Don't have an account? Register now (free) for customized features, flight alerts, and more!